Time;durP1;ratioP1;P1;durP2;ratioP2;P2;SDS_P1;SDS_P2;PMS_P1;PMS_P2;Temp;Humidity;BMP_temperature;BMP_pressure;BME280_temperature;BME280_humidity;BME280_pressure;Samples;Min_cycle;Max_cycle;Signal;HPM_P1;HPM_P2
2022/09/05 00:01:42;;;;;;;;;;;;;;;25.48;39.07;99826.16;4403872;32;35012;-89
2022/09/05 00:04:12;;;;;;;;;;;;;;;25.30;39.33;99824.19;4458434;32;33386;-87
2022/09/05 00:07:10;;;;;;;;;;;;;;;25.27;39.58;99826.97;4455367;32;33746;-88
2022/09/05 00:10:04;;;;;;;;;;;;;;;25.32;39.49;99823.22;4470740;32;34202;-83
2022/09/05 00:12:31;;;;;;;;;;;;;;;25.11;39.87;99837.28;4468232;32;34418;-83
2022/09/05 00:15:02;;;;;;;;;;;;;;;24.93;40.47;99838.78;4468630;32;34247;-85
2022/09/05 00:18:03;;;;;;;;;;;;;;;24.57;41.23;99835.59;4463676;32;35068;-84
2022/09/05 00:20:59;;;;;;;;;;;;;;;24.74;40.83;99839.41;4483491;32;34325;-85
2022/09/05 00:24:05;;;;;;;;;;;;;;;24.80;40.85;99837.47;4483380;32;33871;-84
2022/09/05 00:27:08;;;;;;;;;;;;;;;24.97;40.27;99825.34;4483491;32;33285;-84
2022/09/05 00:30:01;;;;;;;;;;;;;;;24.80;40.36;99830.38;4475906;32;35675;-83
2022/09/05 00:32:54;;;;;;;;;;;;;;;24.92;40.20;99837.03;4467569;32;35347;-89
2022/09/05 00:35:37;;;;;;;;;;;;;;;24.88;40.27;99827.44;4467761;32;34287;-84
2022/09/05 00:38:13;;;;;;;;;;;;;;;24.93;40.01;99820.22;4467275;32;34280;-85
2022/09/05 00:40:49;;;;;;;;;;;;;;;25.00;39.81;99824.34;4453543;32;34078;-88
2022/09/05 00:43:18;;;;;;;;;;;;;;;24.94;39.79;99827.25;4467683;32;34544;-84
2022/09/05 00:45:46;;;;;;;;;;;;;;;25.04;39.53;99825.09;4454437;32;34469;-85
2022/09/05 00:48:16;;;;;;;;;;;;;;;25.02;39.49;99817.22;4483078;32;33495;-89
2022/09/05 00:50:43;;;;;;;;;;;;;;;25.04;39.26;99819.81;4469003;32;34308;-84
2022/09/05 00:53:14;;;;;;;;;;;;;;;24.87;39.71;99823.94;4482890;32;34453;-84
2022/09/05 00:55:47;;;;;;;;;;;;;;;24.71;40.18;99828.91;4482519;32;34063;-86
2022/09/05 00:58:34;;;;;;;;;;;;;;;24.67;40.27;99832.59;4467451;32;33113;-86
2022/09/05 01:01:03;;;;;;;;;;;;;;;24.74;40.00;99828.81;4467415;32;34594;-85
2022/09/05 01:03:52;;;;;;;;;;;;;;;24.78;40.10;99826.06;4455142;32;34812;-82
2022/09/05 01:06:28;;;;;;;;;;;;;;;24.81;39.69;99818.84;4457703;32;33669;-84
2022/09/05 01:09:01;;;;;;;;;;;;;;;24.82;39.63;99819.72;4482649;32;33232;-84
2022/09/05 01:11:37;;;;;;;;;;;;;;;24.83;39.69;99822.31;4468552;32;34867;-87
2022/09/05 01:14:08;;;;;;;;;;;;;;;24.78;39.73;99829.56;4482772;32;34568;-83
2022/09/05 01:16:57;;;;;;;;;;;;;;;24.73;39.87;99816.44;4453491;32;33624;-87
2022/09/05 01:19:33;;;;;;;;;;;;;;;24.76;39.89;99821.66;4469978;32;33892;-87
2022/09/05 01:22:07;;;;;;;;;;;;;;;24.72;39.98;99822.69;4479842;32;34891;-84
2022/09/05 01:24:43;;;;;;;;;;;;;;;24.65;40.07;99818.50;4479837;32;35268;-87
2022/09/05 01:27:29;;;;;;;;;;;;;;;24.64;40.01;99818.56;4467081;32;34425;-85
2022/09/05 01:30:21;;;;;;;;;;;;;;;24.70;39.75;99821.00;4468597;32;34098;-87
2022/09/05 01:33:04;;;;;;;;;;;;;;;24.62;39.98;99817.75;4467992;32;35054;-84
2022/09/05 01:35:32;;;;;;;;;;;;;;;24.67;39.94;99822.00;4481655;32;35131;-84
2022/09/05 01:38:18;;;;;;;;;;;;;;;24.57;40.11;99820.56;4482510;32;34508;-85
2022/09/05 01:40:51;;;;;;;;;;;;;;;24.79;39.58;99819.84;4482507;32;33615;-88
2022/09/05 01:43:55;;;;;;;;;;;;;;;24.61;39.82;99821.31;4482504;32;34962;-84
2022/09/05 01:46:42;;;;;;;;;;;;;;;24.61;39.76;99819.53;4454310;32;33999;-83
2022/09/05 01:49:23;;;;;;;;;;;;;;;24.62;39.68;99815.97;4466962;32;34330;-86
2022/09/05 01:52:06;;;;;;;;;;;;;;;24.70;39.46;99821.88;4466712;32;33306;-86
2022/09/05 01:54:53;;;;;;;;;;;;;;;24.66;39.63;99820.28;4468397;32;34205;-88
2022/09/05 01:57:28;;;;;;;;;;;;;;;24.60;39.63;99817.81;4482337;32;34157;-88
2022/09/05 02:00:14;;;;;;;;;;;;;;;24.64;39.60;99824.75;4468319;32;33837;-88
2022/09/05 02:02:52;;;;;;;;;;;;;;;24.63;39.65;99824.81;4480913;32;33453;-84
2022/09/05 02:05:23;;;;;;;;;;;;;;;24.65;39.49;99818.50;4481903;32;34067;-84
2022/09/05 02:08:13;;;;;;;;;;;;;;;24.69;39.32;99817.47;4482253;32;34312;-89
2022/09/05 02:10:43;;;;;;;;;;;;;;;24.71;38.91;99825.41;4482091;32;34052;-85
2022/09/05 02:13:23;;;;;;;;;;;;;;;24.69;38.97;99819.28;4482021;32;33357;-84
2022/09/05 02:15:53;;;;;;;;;;;;;;;24.65;39.21;99818.50;4467906;32;34130;-89
2022/09/05 02:18:28;;;;;;;;;;;;;;;24.66;39.23;99830.88;4482126;32;35192;-85
2022/09/05 02:20:56;;;;;;;;;;;;;;;24.55;39.39;99822.41;4457371;32;34318;-84
2022/09/05 02:23:31;;;;;;;;;;;;;;;24.52;39.48;99819.88;4469198;32;33101;-88
2022/09/05 02:26:14;;;;;;;;;;;;;;;24.55;39.52;99817.13;4455807;32;34877;-88
2022/09/05 02:28:47;;;;;;;;;;;;;;;24.56;39.53;99824.16;4457920;32;34083;-83
2022/09/05 02:31:26;;;;;;;;;;;;;;;24.52;39.62;99825.16;4479727;32;34542;-83
2022/09/05 02:34:13;;;;;;;;;;;;;;;24.57;39.39;99817.91;4454867;32;33454;-86
2022/09/05 02:36:44;;;;;;;;;;;;;;;24.55;39.39;99817.13;4475664;31;34356;-85
2022/09/05 02:39:19;;;;;;;;;;;;;;;24.56;39.58;99813.53;4457206;32;35149;-85
2022/09/05 02:42:15;;;;;;;;;;;;;;;24.45;39.91;99813.91;4456740;32;34087;-88
2022/09/05 02:45:05;;;;;;;;;;;;;;;24.39;40.06;99823.84;4457544;32;33007;-86
2022/09/05 02:47:56;;;;;;;;;;;;;;;24.62;39.45;99823.06;4468691;32;34231;-84
2022/09/05 02:50:32;;;;;;;;;;;;;;;24.47;39.61;99824.44;4454301;32;34574;-84
2022/09/05 02:53:19;;;;;;;;;;;;;;;24.40;39.93;99820.28;4468996;32;33970;-89
2022/09/05 02:56:26;;;;;;;;;;;;;;;24.61;39.37;99827.50;4456457;32;33319;-87
2022/09/05 02:59:32;;;;;;;;;;;;;;;24.63;38.77;99830.09;4480009;32;34127;-84
2022/09/05 03:02:34;;;;;;;;;;;;;;;24.63;38.66;99830.09;4480948;32;34291;-84
2022/09/05 03:05:07;;;;;;;;;;;;;;;24.47;38.91;99837.69;4443406;32;34841;-84
2022/09/05 03:07:53;;;;;;;;;;;;;;;24.46;38.81;99828.88;4469711;32;33370;-88
2022/09/05 03:10:39;;;;;;;;;;;;;;;24.45;39.02;99828.94;4468948;32;34363;-88
2022/09/05 03:13:26;;;;;;;;;;;;;;;24.45;39.04;99836.88;4476301;32;35279;-83
2022/09/05 03:15:53;;;;;;;;;;;;;;;24.34;39.15;99841.66;4457592;32;34292;-85
2022/09/05 03:18:40;;;;;;;;;;;;;;;24.20;39.49;99840.28;4479634;31;32920;-84
2022/09/05 03:21:23;;;;;;;;;;;;;;;24.23;39.59;99834.91;4457565;32;35126;-88
2022/09/05 03:23:53;;;;;;;;;;;;;;;24.28;39.43;99840.94;4477621;32;34526;-89
2022/09/05 03:26:41;;;;;;;;;;;;;;;24.30;39.20;99837.38;4454575;32;35107;-87
2022/09/05 03:29:17;;;;;;;;;;;;;;;24.25;39.16;99841.03;4468103;32;34373;-86
2022/09/05 03:31:50;;;;;;;;;;;;;;;24.36;38.95;99839.78;4461217;32;34630;-84
2022/09/05 03:34:23;;;;;;;;;;;;;;;24.33;38.90;99838.12;4477830;31;34157;-84
2022/09/05 03:37:05;;;;;;;;;;;;;;;24.29;38.86;99841.81;4478504;32;34438;-85
2022/09/05 03:39:42;;;;;;;;;;;;;;;24.28;39.01;99845.34;4454009;32;32948;-85
2022/09/05 03:42:17;;;;;;;;;;;;;;;24.12;39.46;99844.12;4465500;32;34397;-86
2022/09/05 03:44:48;;;;;;;;;;;;;;;24.09;39.60;99849.50;4479538;32;34943;-84
2022/09/05 03:47:19;;;;;;;;;;;;;;;23.98;39.83;99852.47;4475171;32;32579;-87
2022/09/05 03:49:46;;;;;;;;;;;;;;;24.13;39.57;99852.03;4467375;32;31856;-88
2022/09/05 03:52:52;;;;;;;;;;;;;;;24.22;39.15;99848.22;4467701;32;33872;-82
2022/09/05 03:55:57;;;;;;;;;;;;;;;24.21;39.19;99850.00;4476400;32;35209;-84
2022/09/05 03:58:45;;;;;;;;;;;;;;;24.11;39.40;99859.16;4477270;32;35031;-82
2022/09/05 04:01:34;;;;;;;;;;;;;;;24.11;39.49;99858.28;4470209;32;32321;-82
2022/09/05 04:04:27;;;;;;;;;;;;;;;24.06;39.71;99865.53;4470887;32;34176;-85
2022/09/05 04:07:15;;;;;;;;;;;;;;;24.13;39.65;99862.63;4457385;32;34062;-89
2022/09/05 04:10:03;;;;;;;;;;;;;;;24.16;39.44;99867.81;4478840;32;34073;-84
2022/09/05 04:12:31;;;;;;;;;;;;;;;24.21;39.08;99867.69;4461803;32;33013;-86
2022/09/05 04:15:16;;;;;;;;;;;;;;;24.30;38.93;99866.50;4479125;32;33745;-89
2022/09/05 04:17:47;;;;;;;;;;;;;;;24.27;39.07;99870.97;4461370;32;34092;-84
2022/09/05 04:20:41;;;;;;;;;;;;;;;24.28;38.98;99878.03;4475205;32;34309;-84
2022/09/05 04:23:12;;;;;;;;;;;;;;;24.20;39.09;99885.34;4469876;31;33344;-88
2022/09/05 04:25:58;;;;;;;;;;;;;;;24.26;38.93;99879.84;4474363;32;34141;-83
2022/09/05 04:28:41;;;;;;;;;;;;;;;24.21;39.02;99886.22;4467703;32;34682;-88
2022/09/05 04:31:19;;;;;;;;;;;;;;;24.20;39.09;99890.62;4469057;32;34213;-84
2022/09/05 04:33:55;;;;;;;;;;;;;;;24.25;39.13;99894.03;4478565;32;34302;-84
2022/09/05 04:36:25;;;;;;;;;;;;;;;24.31;39.06;99887.66;4465747;32;34968;-85
2022/09/05 04:39:11;;;;;;;;;;;;;;;24.32;39.05;99893.81;4458357;32;35388;-84
2022/09/05 04:41:39;;;;;;;;;;;;;;;24.36;38.97;99893.69;4474470;32;34341;-84
2022/09/05 04:44:09;;;;;;;;;;;;;;;24.70;38.74;99896.13;4469221;32;33370;-84
2022/09/05 04:46:50;;;;;;;;;;;;;;;24.95;38.42;99892.63;4466739;32;33668;-90
2022/09/05 04:49:32;;;;;;;;;;;;;;;25.35;37.79;99897.44;4482610;32;34512;-84
2022/09/05 04:52:08;;;;;;;;;;;;;;;25.69;37.30;99899.72;4459486;32;33980;-83
2022/09/05 04:54:44;;;;;;;;;;;;;;;25.96;36.67;99908.44;4467620;32;33251;-85
2022/09/05 04:57:14;;;;;;;;;;;;;;;26.16;36.59;99904.16;4453469;32;34962;-85
2022/09/05 04:59:48;;;;;;;;;;;;;;;26.19;36.66;99904.88;4453048;32;35368;-83
2022/09/05 05:02:36;;;;;;;;;;;;;;;26.49;36.50;99903.75;4480063;32;34989;-86
2022/09/05 05:05:25;;;;;;;;;;;;;;;26.77;35.94;99907.00;4471351;32;33494;-85
2022/09/05 05:08:12;;;;;;;;;;;;;;;26.77;36.23;99904.34;4478905;32;34967;-86
2022/09/05 05:10:42;;;;;;;;;;;;;;;27.07;35.65;99899.50;4465806;32;34108;-84
2022/09/05 05:13:39;;;;;;;;;;;;;;;26.84;36.37;99910.25;4455480;32;33668;-84
2022/09/05 05:16:28;;;;;;;;;;;;;;;27.47;35.21;99908.44;4455554;32;33307;-84
2022/09/05 05:19:28;;;;;;;;;;;;;;;27.04;36.00;99907.59;4463960;32;34284;-84
2022/09/05 05:21:57;;;;;;;;;;;;;;;26.81;36.02;99913.91;4468699;32;34155;-87
2022/09/05 05:24:26;;;;;;;;;;;;;;;26.84;36.00;99911.13;4468644;32;34253;-83
2022/09/05 05:26:56;;;;;;;;;;;;;;;27.03;35.84;99911.22;4482645;32;33000;-84
2022/09/05 05:29:26;;;;;;;;;;;;;;;26.98;36.32;99915.00;4452986;32;33957;-82
2022/09/05 05:31:54;;;;;;;;;;;;;;;26.76;36.44;99915.03;4452683;32;34451;-87
2022/09/05 05:34:23;;;;;;;;;;;;;;;27.51;35.42;99912.69;4466973;32;33884;-90
2022/09/05 05:37:17;;;;;;;;;;;;;;;26.52;37.09;99906.28;4466977;32;32922;-84
2022/09/05 05:39:47;;;;;;;;;;;;;;;27.05;35.93;99922.66;4462223;32;35035;-87
2022/09/05 05:42:15;;;;;;;;;;;;;;;26.71;36.37;99917.00;4452809;32;35155;-84
2022/09/05 05:44:48;;;;;;;;;;;;;;;26.44;36.97;99917.19;4466946;32;34067;-84
2022/09/05 05:47:21;;;;;;;;;;;;;;;26.80;36.25;99917.50;4458669;32;33344;-84
2022/09/05 05:50:06;;;;;;;;;;;;;;;26.89;36.53;99919.75;4479961;32;34223;-82
2022/09/05 05:52:38;;;;;;;;;;;;;;;27.56;35.34;99921.31;4458830;32;35194;-82
2022/09/05 05:55:25;;;;;;;;;;;;;;;27.26;36.27;99922.69;4482351;32;34773;-84
2022/09/05 05:58:12;;;;;;;;;;;;;;;27.45;36.21;99920.06;4472866;32;33020;-82
2022/09/05 06:00:50;;;;;;;;;;;;;;;26.33;37.83;99916.75;4468884;32;34644;-81
2022/09/05 06:03:24;;;;;;;;;;;;;;;26.40;38.75;99919.13;4454406;32;34459;-82
2022/09/05 06:05:56;;;;;;;;;;;;;;;27.33;36.86;99926.81;4468618;32;35045;-82
2022/09/05 06:08:42;;;;;;;;;;;;;;;26.83;37.13;99927.16;4468746;32;33740;-82
2022/09/05 06:11:43;;;;;;;;;;;;;;;27.01;36.54;99923.72;4468541;32;34239;-83
2022/09/05 06:14:49;;;;;;;;;;;;;;;26.75;36.61;99924.81;4458002;32;34841;-82
2022/09/05 06:17:44;;;;;;;;;;;;;;;26.64;35.80;99919.94;4468554;32;33716;-81
2022/09/05 06:20:24;;;;;;;;;;;;;;;26.03;37.67;99926.81;4468528;32;33268;-82
2022/09/05 06:23:18;;;;;;;;;;;;;;;24.71;40.51;99934.97;4468492;32;33992;-81
2022/09/05 06:26:11;;;;;;;;;;;;;;;24.85;40.38;99926.59;4475179;32;34224;-81
2022/09/05 06:29:02;;;;;;;;;;;;;;;26.02;38.48;99928.59;4470453;32;34295;-80
2022/09/05 06:31:44;;;;;;;;;;;;;;;25.46;39.55;99935.09;4476540;32;33897;-82
2022/09/05 06:34:24;;;;;;;;;;;;;;;25.81;38.99;99934.75;4484114;32;34128;-81
2022/09/05 06:37:21;;;;;;;;;;;;;;;24.99;40.64;99929.59;4484236;32;34367;-82
2022/09/05 06:39:59;;;;;;;;;;;;;;;25.58;39.91;99933.75;4484111;32;35174;-84
2022/09/05 06:42:30;;;;;;;;;;;;;;;24.83;41.78;99948.75;4469492;32;34403;-82
2022/09/05 06:45:12;;;;;;;;;;;;;;;25.83;40.28;99949.66;4483911;31;34118;-81
2022/09/05 06:47:55;;;;;;;;;;;;;;;26.48;39.05;99941.91;4477793;32;34950;-80
2022/09/05 06:50:23;;;;;;;;;;;;;;;26.34;39.87;99947.75;4470188;32;34142;-80
2022/09/05 06:52:54;;;;;;;;;;;;;;;26.37;38.81;99950.28;4470060;32;33311;-80
2022/09/05 06:55:21;;;;;;;;;;;;;;;26.57;38.51;99953.03;4483898;32;35146;-79
2022/09/05 06:58:09;;;;;;;;;;;;;;;26.46;39.35;99960.56;4483977;32;35263;-79
2022/09/05 07:00:37;;;;;;;;;;;;;;;25.47;39.28;99952.72;4483725;32;34324;-79
2022/09/05 07:03:20;;;;;;;;;;;;;;;25.93;39.74;99961.69;4483402;32;33716;-79
2022/09/05 07:05:52;;;;;;;;;;;;;;;26.58;38.25;99953.91;4469807;32;33848;-78
2022/09/05 07:08:43;;;;;;;;;;;;;;;25.01;41.14;99953.44;4483193;32;35078;-80
2022/09/05 07:11:13;;;;;;;;;;;;;;;25.15;40.70;99956.50;4483827;32;34320;-80
2022/09/05 07:13:47;;;;;;;;;;;;;;;25.67;40.52;99962.63;4469166;32;33483;-79
2022/09/05 07:16:16;;;;;;;;;;;;;;;25.93;39.93;99960.84;4468903;32;34779;-78
2022/09/05 07:19:03;;;;;;;;;;;;;;;26.33;38.00;99959.28;4456778;32;34427;-80
2022/09/05 07:21:39;;;;;;;;;;;;;;;26.78;37.44;99958.41;4468261;32;33894;-80
2022/09/05 07:24:10;;;;;;;;;;;;;;;26.58;38.30;99961.88;4454475;32;33496;-80
2022/09/05 07:26:39;;;;;;;;;;;;;;;25.47;40.25;99967.81;4454067;32;34867;-79
2022/09/05 07:29:33;;;;;;;;;;;;;;;26.64;37.81;99954.53;4455901;32;34457;-79
2022/09/05 07:32:02;;;;;;;;;;;;;;;27.19;36.64;99964.69;4454345;32;33841;-82
2022/09/05 07:34:30;;;;;;;;;;;;;;;26.80;38.08;99954.75;4454622;32;33093;-82
2022/09/05 07:36:58;;;;;;;;;;;;;;;27.20;37.31;99960.22;4454079;32;34055;-82
2022/09/05 07:39:56;;;;;;;;;;;;;;;27.36;36.34;99953.31;4464843;32;34517;-81
2022/09/05 07:42:37;;;;;;;;;;;;;;;27.92;35.29;99955.25;4455772;32;34517;-79
2022/09/05 07:45:07;;;;;;;;;;;;;;;27.47;35.83;99959.03;4453805;32;33121;-80
2022/09/05 07:47:35;;;;;;;;;;;;;;;27.55;35.96;99956.88;4468024;32;34232;-80
2022/09/05 07:50:04;;;;;;;;;;;;;;;27.45;35.86;99968.00;4473381;32;34160;-87
2022/09/05 07:52:54;;;;;;;;;;;;;;;28.01;34.75;99952.16;4483158;32;34488;-86
2022/09/05 07:55:41;;;;;;;;;;;;;;;28.39;34.14;99951.31;4483754;32;33934;-82
2022/09/05 07:58:40;;;;;;;;;;;;;;;27.58;35.41;99956.75;4471637;32;34402;-84
2022/09/05 08:01:08;;;;;;;;;;;;;;;28.51;34.38;99940.91;4469533;32;34192;-82
2022/09/05 08:03:36;;;;;;;;;;;;;;;28.75;33.80;99937.97;4469206;32;34314;-86
2022/09/05 08:06:04;;;;;;;;;;;;;;;29.52;32.52;99950.97;4469584;32;33696;-86
2022/09/05 08:08:47;;;;;;;;;;;;;;;29.19;32.94;99945.56;4469449;32;34159;-84
2022/09/05 08:11:35;;;;;;;;;;;;;;;28.75;32.79;99949.53;4484080;32;34329;-84
2022/09/05 08:14:07;;;;;;;;;;;;;;;28.78;33.21;99948.50;4483571;32;35058;-83
2022/09/05 08:16:54;;;;;;;;;;;;;;;29.69;32.02;99947.41;4471726;32;33541;-82
2022/09/05 08:19:37;;;;;;;;;;;;;;;28.11;33.76;99948.13;4483464;31;33288;-83
2022/09/05 08:22:04;;;;;;;;;;;;;;;27.18;34.69;99962.94;4483698;32;34746;-86
2022/09/05 08:24:36;;;;;;;;;;;;;;;28.25;34.12;99943.94;4483769;32;34185;-86
2022/09/05 08:27:14;;;;;;;;;;;;;;;28.27;33.49;99952.75;4468579;32;33276;-86
2022/09/05 08:30:05;;;;;;;;;;;;;;;29.19;31.91;99950.91;4453482;32;34237;-87
2022/09/05 08:32:52;;;;;;;;;;;;;;;28.77;32.55;99946.78;4455766;32;34074;-81
2022/09/05 08:35:26;;;;;;;;;;;;;;;28.98;33.11;99944.84;4467596;32;34939;-84
2022/09/05 08:37:54;;;;;;;;;;;;;;;29.83;30.81;99950.19;4476052;32;33548;-84
2022/09/05 08:40:26;;;;;;;;;;;;;;;29.46;32.08;99946.78;4468608;32;34235;-83
2022/09/05 08:42:54;;;;;;;;;;;;;;;29.44;30.88;99943.34;4469151;32;34160;-86
2022/09/05 08:45:42;;;;;;;;;;;;;;;29.36;31.19;99945.56;4481188;32;33896;-84
2022/09/05 08:48:38;;;;;;;;;;;;;;;29.68;31.79;99938.53;4483309;32;33756;-90
2022/09/05 08:51:07;;;;;;;;;;;;;;;29.96;30.71;99935.19;4483113;32;33795;-83
2022/09/05 08:53:35;;;;;;;;;;;;;;;28.69;32.34;99938.28;4469255;32;33830;-83
2022/09/05 08:56:22;;;;;;;;;;;;;;;29.44;31.04;99938.00;4480111;32;34232;-90
2022/09/05 08:58:57;;;;;;;;;;;;;;;29.76;31.61;99938.09;4454460;32;33564;-88
2022/09/05 09:01:54;;;;;;;;;;;;;;;28.59;32.38;99933.37;4460632;32;34187;-82
2022/09/05 09:04:46;;;;;;;;;;;;;;;28.62;32.91;99930.56;4467295;32;35267;-83
2022/09/05 09:07:32;;;;;;;;;;;;;;;29.18;31.87;99927.81;4467581;32;34201;-84
2022/09/05 09:10:29;;;;;;;;;;;;;;;28.86;32.41;99922.28;4467338;32;34046;-87
2022/09/05 09:13:05;;;;;;;;;;;;;;;29.45;30.99;99913.00;4467225;32;34218;-83
2022/09/05 09:15:36;;;;;;;;;;;;;;;29.14;32.24;99913.75;4453608;32;34151;-83
2022/09/05 09:18:08;;;;;;;;;;;;;;;29.23;31.87;99915.09;4453138;32;34581;-82
2022/09/05 09:20:42;;;;;;;;;;;;;;;29.57;31.84;99911.50;4467144;32;33071;-82
2022/09/05 09:23:17;;;;;;;;;;;;;;;28.49;33.09;99904.56;4453455;32;35210;-82
2022/09/05 09:26:02;;;;;;;;;;;;;;;29.26;31.80;99914.94;4467221;32;35962;-83
2022/09/05 09:28:41;;;;;;;;;;;;;;;29.11;31.88;99910.37;4467216;32;33794;-89
2022/09/05 09:31:22;;;;;;;;;;;;;;;28.91;32.25;99916.72;4467146;32;33992;-87
2022/09/05 09:33:58;;;;;;;;;;;;;;;28.83;32.01;99917.97;4454444;32;34602;-88
2022/09/05 09:36:41;;;;;;;;;;;;;;;29.41;31.79;99916.78;4468892;32;35366;-82
2022/09/05 09:39:17;;;;;;;;;;;;;;;28.91;32.20;99922.06;4454495;32;35010;-86
2022/09/05 09:42:14;;;;;;;;;;;;;;;29.41;32.46;99926.63;4457340;32;33487;-82
2022/09/05 09:45:06;;;;;;;;;;;;;;;28.40;33.35;99927.22;4468967;32;34938;-81
2022/09/05 09:48:08;;;;;;;;;;;;;;;28.46;32.93;99921.59;4468733;32;35318;-86
2022/09/05 09:50:36;;;;;;;;;;;;;;;29.53;31.41;99921.47;4468882;32;34324;-82
2022/09/05 09:53:14;;;;;;;;;;;;;;;29.79;32.07;99917.44;4474153;32;33295;-84
2022/09/05 09:56:04;;;;;;;;;;;;;;;28.94;32.47;99912.06;4484475;31;34170;-86
2022/09/05 09:58:45;;;;;;;;;;;;;;;29.40;31.48;99909.72;4484588;32;34446;-83
2022/09/05 10:01:15;;;;;;;;;;;;;;;30.01;31.52;99908.22;4484463;32;34389;-82
2022/09/05 10:04:14;;;;;;;;;;;;;;;29.85;31.13;99913.53;4484369;32;32896;-84
2022/09/05 10:07:14;;;;;;;;;;;;;;;30.24;31.28;99910.50;4472444;32;34743;-83
2022/09/05 10:10:11;;;;;;;;;;;;;;;29.68;31.14;99908.28;4474297;32;34236;-83
2022/09/05 10:13:04;;;;;;;;;;;;;;;29.01;33.12;99913.50;4468307;32;34238;-83
2022/09/05 10:15:54;;;;;;;;;;;;;;;29.11;32.95;99907.72;4468759;32;32970;-83
2022/09/05 10:18:21;;;;;;;;;;;;;;;29.52;32.58;99910.88;4468786;32;34387;-84
2022/09/05 10:20:56;;;;;;;;;;;;;;;29.94;30.73;99912.19;4469012;32;34050;-87
2022/09/05 10:23:51;;;;;;;;;;;;;;;29.97;30.92;99909.34;4468614;32;34555;-87
2022/09/05 10:26:30;;;;;;;;;;;;;;;29.39;31.07;99913.31;4480904;32;32769;-84
2022/09/05 10:28:57;;;;;;;;;;;;;;;29.55;31.27;99908.91;4483392;32;35047;-84
2022/09/05 10:31:45;;;;;;;;;;;;;;;29.53;32.34;99899.25;4483943;31;34601;-87
2022/09/05 10:34:45;;;;;;;;;;;;;;;29.96;31.54;99892.41;4484039;32;35368;-86
2022/09/05 10:37:55;;;;;;;;;;;;;;;29.90;30.15;99898.12;4484381;32;33908;-82
2022/09/05 10:40:24;;;;;;;;;;;;;;;30.14;30.89;99889.69;4469836;32;34007;-84
2022/09/05 10:42:53;;;;;;;;;;;;;;;29.92;30.98;99896.22;4463988;32;34179;-83
2022/09/05 10:45:44;;;;;;;;;;;;;;;30.44;29.85;99882.59;4470650;32;34278;-86
2022/09/05 10:48:19;;;;;;;;;;;;;;;29.76;29.98;99882.84;4469154;32;33338;-86
2022/09/05 10:50:53;;;;;;;;;;;;;;;29.11;31.70;99881.88;4469813;32;34317;-85
2022/09/05 10:53:25;;;;;;;;;;;;;;;29.24;32.49;99880.28;4483374;32;34533;-87
2022/09/05 10:56:02;;;;;;;;;;;;;;;30.21;31.09;99869.69;4470895;32;34062;-87
2022/09/05 10:58:33;;;;;;;;;;;;;;;30.62;30.39;99869.97;4484094;32;33902;-86
2022/09/05 11:01:24;;;;;;;;;;;;;;;30.11;30.92;99873.81;4461653;32;35087;-87
2022/09/05 11:04:20;;;;;;;;;;;;;;;30.68;30.75;99869.59;4456739;32;35383;-85
2022/09/05 11:06:48;;;;;;;;;;;;;;;30.66;31.05;99870.66;4454333;32;34172;-83
2022/09/05 11:09:36;;;;;;;;;;;;;;;30.78;30.36;99867.28;4454265;32;34318;-87
2022/09/05 11:12:03;;;;;;;;;;;;;;;30.75;31.63;99867.44;4468354;32;34567;-88
2022/09/05 11:14:37;;;;;;;;;;;;;;;30.64;30.63;99868.03;4471230;32;34499;-83
2022/09/05 11:17:10;;;;;;;;;;;;;;;30.89;30.19;99862.13;4483587;32;33761;-88
2022/09/05 11:19:41;;;;;;;;;;;;;;;30.72;30.15;99862.25;4469654;32;33959;-83
2022/09/05 11:22:09;;;;;;;;;;;;;;;31.44;27.93;99861.47;4469712;32;34011;-82
2022/09/05 11:24:57;;;;;;;;;;;;;;;31.18;28.37;99859.53;4471600;32;33887;-90
2022/09/05 11:27:34;;;;;;;;;;;;;;;30.44;29.14;99855.00;4469457;32;35126;-83
2022/09/05 11:30:07;;;;;;;;;;;;;;;30.67;29.84;99857.16;4473279;32;33784;-86
2022/09/05 11:32:43;;;;;;;;;;;;;;;31.19;28.79;99850.53;4468190;32;34019;-88
2022/09/05 11:35:32;;;;;;;;;;;;;;;29.76;31.15;99853.44;4467989;32;34718;-86
2022/09/05 11:38:19;;;;;;;;;;;;;;;30.74;28.82;99847.84;4467966;32;34053;-85
2022/09/05 11:41:13;;;;;;;;;;;;;;;30.85;29.40;99849.03;4469350;32;33528;-85
2022/09/05 11:43:51;;;;;;;;;;;;;;;31.01;29.52;99848.00;4483911;32;34296;-85
2022/09/05 11:46:35;;;;;;;;;;;;;;;31.55;27.90;99841.16;4483579;32;34254;-85
2022/09/05 11:49:06;;;;;;;;;;;;;;;30.84;28.96;99845.50;4469634;32;35070;-86
2022/09/05 11:51:52;;;;;;;;;;;;;;;31.04;28.25;99841.59;4483477;32;34184;-83
2022/09/05 11:54:34;;;;;;;;;;;;;;;30.83;28.69;99835.72;4483770;32;33898;-83
2022/09/05 11:57:22;;;;;;;;;;;;;;;30.85;29.12;99839.19;4474141;32;35389;-87
2022/09/05 12:00:08;;;;;;;;;;;;;;;30.76;28.87;99831.69;4453156;32;33568;-86
2022/09/05 12:02:59;;;;;;;;;;;;;;;30.93;29.39;99839.56;4468222;32;33736;-87
2022/09/05 12:05:29;;;;;;;;;;;;;;;31.19;28.50;99834.44;4467730;32;35207;-83
2022/09/05 12:08:26;;;;;;;;;;;;;;;31.60;27.76;99831.03;4468127;32;34247;-86
2022/09/05 12:10:58;;;;;;;;;;;;;;;31.73;27.57;99821.22;4467893;32;34594;-83
2022/09/05 12:13:39;;;;;;;;;;;;;;;31.31;28.02;99824.81;4467813;32;33963;-85
2022/09/05 12:16:26;;;;;;;;;;;;;;;31.45;27.31;99823.00;4467865;32;34159;-82
2022/09/05 12:18:55;;;;;;;;;;;;;;;31.63;27.47;99820.97;4457428;32;35280;-87
2022/09/05 12:21:37;;;;;;;;;;;;;;;30.90;28.79;99825.50;4468050;32;35091;-81
2022/09/05 12:24:15;;;;;;;;;;;;;;;30.28;30.12;99822.94;4481532;31;34493;-83
2022/09/05 12:27:02;;;;;;;;;;;;;;;30.75;29.30;99816.59;4471449;32;34069;-82
2022/09/05 12:29:53;;;;;;;;;;;;;;;30.96;29.24;99819.78;4483482;32;34511;-89
2022/09/05 12:32:26;;;;;;;;;;;;;;;30.70;28.71;99816.84;4469972;31;33967;-82
2022/09/05 12:35:21;;;;;;;;;;;;;;;31.20;28.37;99817.41;4483458;32;34261;-82
2022/09/05 12:38:13;;;;;;;;;;;;;;;30.36;29.28;99809.09;4461639;32;34716;-82
2022/09/05 12:41:06;;;;;;;;;;;;;;;30.83;28.62;99813.44;4467566;32;35219;-82
2022/09/05 12:44:00;;;;;;;;;;;;;;;30.99;29.36;99814.25;4455976;32;33908;-84
2022/09/05 12:47:05;;;;;;;;;;;;;;;31.38;28.14;99800.22;4467646;32;34031;-88
2022/09/05 12:49:55;;;;;;;;;;;;;;;29.85;30.18;99803.94;4455234;32;34043;-82
2022/09/05 12:52:31;;;;;;;;;;;;;;;30.91;28.41;99801.34;4474114;32;35247;-83
2022/09/05 12:55:04;;;;;;;;;;;;;;;30.67;29.77;99797.44;4468846;32;34182;-83
2022/09/05 12:57:32;;;;;;;;;;;;;;;30.95;29.08;99794.84;4467921;32;33503;-80
2022/09/05 13:00:20;;;;;;;;;;;;;;;31.20;28.71;99791.47;4480306;32;33501;-82
2022/09/05 13:03:12;;;;;;;;;;;;;;;31.50;27.62;99787.84;4471670;32;35262;-82
2022/09/05 13:06:08;;;;;;;;;;;;;;;31.18;28.11;99787.19;4465888;32;34879;-84
2022/09/05 13:08:42;;;;;;;;;;;;;;;31.40;27.92;99784.03;4479248;31;33619;-86
2022/09/05 13:11:10;;;;;;;;;;;;;;;30.95;29.79;99792.16;4460705;32;33932;-82
2022/09/05 13:14:06;;;;;;;;;;;;;;;30.25;30.77;99786.50;4469862;32;33952;-85
2022/09/05 13:16:53;;;;;;;;;;;;;;;31.23;27.50;99782.41;4457904;32;34963;-86
2022/09/05 13:19:24;;;;;;;;;;;;;;;31.50;28.49;99772.63;4481011;32;33235;-80
2022/09/05 13:21:51;;;;;;;;;;;;;;;30.76;29.41;99775.47;4482638;32;34022;-81
2022/09/05 13:24:26;;;;;;;;;;;;;;;29.72;30.66;99770.84;4479741;32;34180;-82
2022/09/05 13:27:06;;;;;;;;;;;;;;;29.55;30.22;99769.97;4455170;32;34248;-82
2022/09/05 13:29:42;;;;;;;;;;;;;;;30.92;28.99;99773.59;4464047;32;33003;-82
2022/09/05 13:32:33;;;;;;;;;;;;;;;30.57;29.40;99774.84;4451998;32;34020;-83
2022/09/05 13:35:22;;;;;;;;;;;;;;;30.90;29.14;99758.56;4471103;32;35191;-84
2022/09/05 13:38:13;;;;;;;;;;;;;;;31.39;29.04;99760.88;4453699;32;33787;-86
2022/09/05 13:41:02;;;;;;;;;;;;;;;31.46;30.46;99768.44;4451681;32;32870;-91
2022/09/05 13:43:36;;;;;;;;;;;;;;;31.69;29.30;99758.91;4451708;32;34992;-83
2022/09/05 13:46:09;;;;;;;;;;;;;;;31.55;28.64;99768.78;4465276;32;34385;-82
2022/09/05 13:48:37;;;;;;;;;;;;;;;31.72;28.45;99755.16;4469515;32;34708;-82
2022/09/05 13:51:27;;;;;;;;;;;;;;;31.95;28.30;99757.22;4465728;32;33888;-83
2022/09/05 13:54:05;;;;;;;;;;;;;;;32.11;28.69;99750.84;4465183;32;33898;-82
2022/09/05 13:56:32;;;;;;;;;;;;;;;32.27;27.58;99746.16;4454585;32;35611;-82
2022/09/05 13:59:02;;;;;;;;;;;;;;;32.65;27.48;99745.38;4470532;32;33649;-91